Terminal Aerodrome Forecast
Issued by NWS

Current Version | Previous Version | Graphics & Text | Print | Product List | Glossary On
Versions: 1 2 3 4 5 6 7 8 9 10 11 12 13 14 15 16 17 18 19
028
FTUS41 KILN 251740
TAFLUK
TAF
KLUK 251740Z 2518/2618 26014G24KT P6SM OVC028
     FM252300 27010KT P6SM BKN050
     FM260300 28008KT P6SM SCT050
     FM260600 27006KT P6SM SCT250
     FM261600 21007KT P6SM SCT150=

USA.gov is the U.S. government's official web portal to all federal, state and local government web resources and services.